• Join FlightAware (Why Join?)
  • Login
  • US Flag 
04:00PM EDT


 

Airport Tracker/Info


-or-


 

Live Flight TrackerFlight Track Log ✈ SWA101 ✈ 03-Jul-2013 ✈ KDEN - KPHX

Flight Track Log - Related Links

Times and Time Zones

All times are in EDT time to prevent confusion due to time zone crossing. See the SWA101 flight status page for this flight to view local times or setup timezone preferences in your user account.

Time Position Orientation Groundspeed Altitude Reporting Facility
EDT Latitude Longitude Course Direction KTS MPH feet Rate Location/Type
12:42AM 39.9167 -104.6667 210° Southwest 196 226 6,700  Level Denver TRACON
12:44AM 39.8833 -104.5833 118° Southeast 242 278 9,300 2,580 Climbing Denver TRACON
12:45AM 39.8500 -104.5000 117° Southeast 268 308 12,200 2,700 Climbing Denver TRACON
12:46AM 39.7717 -104.4786 168° South 289 333 15,200 1,800 Climbing Denver Center
12:47AM 39.6817 -104.5519 212° Southwest 362 417 16,200 1,620 Climbing Denver Center
12:48AM 39.4855 -104.4984 210° Southwest  Level FlightAware Approximate
12:48AM 39.5881 -104.6414 216° Southwest 417 480 18,600  Level Denver Center
12:49AM 39.4811 -104.7244 211° Southwest 454 522 20,900 2,160 Climbing Denver Center
12:50AM 39.3672 -104.8097 210° Southwest 475 547 23,000 1,860 Climbing Denver Center
12:51AM 39.2589 -104.8861 209° Southwest 476 548 24,700 1,620 Climbing Denver Center
12:52AM 39.1356 -104.9778 210° Southwest 519 597 26,300 1,740 Climbing Denver Center
12:53AM 39.0119 -105.0653 209° Southwest 509 586 28,700 2,460 Climbing Denver Center
12:54AM 38.8667 -105.1697 209° Southwest 500 575 31,800 2,520 Climbing Denver Center
12:55AM 38.7239 -105.2722 209° Southwest 491 565 33,900 1,560 Climbing Denver Center
12:56AM 38.6086 -105.3708 214° Southwest 499 574 35,000 720 Climbing Denver Center
12:57AM 38.5086 -105.4914 223° Southwest 496 571 35,400 720 Climbing Denver Center
12:58AM 38.4069 -105.6114 223° Southwest 497 572 36,500 1,140 Climbing Denver Center
12:59AM 38.3008 -105.7361 223° Southwest 500 575 37,800 720 Climbing Denver Center
01:00AM 38.2014 -105.8511 222° Southwest 504 580 38,000 60 Climbing Denver Center
01:01AM 38.1025 -105.9661 222° Southwest 504 580 38,000  Level Denver Center
01:02AM 37.9869 -106.1000 222° Southwest 503 579 38,000  Level Denver Center
01:03AM 37.8875 -106.2161 223° Southwest 507 583 38,000  Level Denver Center
01:04AM 37.7778 -106.3406 222° Southwest 510 587 38,000  Level Denver Center
01:05AM 37.6769 -106.4558 222° Southwest 509 586 38,000  Level Denver Center
01:06AM 37.5592 -106.5928 223° Southwest 513 590 38,000  Level Denver Center
01:07AM 37.4558 -106.7075 221° Southwest 515 593 38,000  Level Denver Center
01:08AM 37.3525 -106.8250 222° Southwest 520 598 38,000  Level Denver Center
01:09AM 37.2325 -106.9594 222° Southwest 520 598 38,000  Level Denver Center
01:10AM 37.1303 -107.0744 222° Southwest 517 595 38,000  Level Denver Center
01:11AM 37.0275 -107.1892 222° Southwest 517 595 38,000  Level Denver Center
01:12AM 36.9239 -107.3028 221° Southwest 517 595 38,000  Level Denver Center
01:13AM 36.8058 -107.4358 222° Southwest 514 592 38,000  Level Denver Center
01:14AM 36.7031 -107.5483 221° Southwest 512 589 38,000  Level Denver Center
01:15AM 36.6014 -107.6614 222° Southwest 511 588 38,000  Level Denver Center
01:16AM 36.4828 -107.7917 221° Southwest 508 585 38,000  Level Denver Center
01:17AM 36.3803 -107.9017 221° Southwest 507 583 38,000  Level Denver Center
01:18AM 36.3311 -107.9581 223° Southwest 504 580 38,000  Level Albuquerque Center
01:19AM 36.2136 -108.0861 221° Southwest 501 577 38,000  Level Albuquerque Center
01:19AM 36.1631 -108.1392 220° Southwest 500 575 38,000  Level Denver Center
01:20AM 36.1128 -108.1939 221° Southwest 499 574 38,000  Level Albuquerque Center
01:21AM 36.0131 -108.3011 221° Southwest 495 570 38,000 -180 Level Albuquerque Center
01:22AM 35.9194 -108.4172 225° Southwest 495 570 37,700 -540 Descending Albuquerque Center
01:23AM 35.8075 -108.5528 225° Southwest 498 573 37,000 -360 Descending Albuquerque Center
01:24AM 35.7106 -108.6708 225° Southwest 505 581 37,000  Level Albuquerque Center
01:25AM 35.6133 -108.7883 225° Southwest 506 582 37,000  Level Albuquerque Center
01:26AM 35.5172 -108.9044 225° Southwest 506 582 37,000  Level Albuquerque Center
01:27AM 35.4036 -109.0400 224° Southwest 507 583 37,000  Level Albuquerque Center
01:28AM 35.3061 -109.1569 224° Southwest 508 585 37,000  Level Albuquerque Center
01:29AM 35.2097 -109.2711 224° Southwest 506 582 37,000  Level Albuquerque Center
01:30AM 35.0969 -109.4056 224° Southwest 506 582 37,000  Level Albuquerque Center
01:31AM 35.0000 -109.5189 224° Southwest 504 580 37,000 -360 Level Albuquerque Center
01:32AM 34.9044 -109.6311 224° Southwest 500 575 36,300 -540 Descending Albuquerque Center
01:33AM 34.7925 -109.7625 224° Southwest 500 575 36,000 -300 Descending Albuquerque Center
01:34AM 34.7217 -109.9003 238° Southwest 495 570 35,700 -660 Descending Albuquerque Center
01:35AM 34.6533 -110.0394 239° Southwest 498 573 34,700 -960 Descending Albuquerque Center
01:36AM 34.5856 -110.1822 240° Southwest 504 580 33,800 -1,140 Descending Albuquerque Center
01:37AM 34.5042 -110.3461 239° Southwest 506 582 32,500 -2,220 Descending Albuquerque Center
01:38AM 34.4353 -110.4833 239° Southwest 506 582 29,400 -2,940 Descending Albuquerque Center
01:39AM 34.3653 -110.6278 240° Southwest 499 574 26,600 -2,760 Descending Albuquerque Center
01:40AM 34.2956 -110.7633 238° Southwest 481 554 23,900 -2,580 Descending Albuquerque Center
01:41AM 34.2272 -110.8944 238° Southwest 467 537 21,400 -2,400 Descending Albuquerque Center
01:42AM 34.1639 -111.0208 239° Southwest 448 516 19,100 -1,920 Descending Albuquerque Center
01:43AM 34.0964 -111.1294 233° Southwest 413 475 17,600 -1,740 Descending Albuquerque Center
01:44AM 34.0231 -111.2228 227° Southwest 388 447 15,600 -2,040 Descending Albuquerque Center
01:45AM 33.9514 -111.3164 227° Southwest 380 437 13,600 -1,740 Descending Albuquerque Center
01:46AM 33.8803 -111.4050 226° Southwest 366 421 12,200 -1,380 Descending Albuquerque Center
01:47AM 33.8044 -111.4714 216° Southwest 338 389 10,900 -1,440 Descending Albuquerque Center
01:48AM 33.7336 -111.5322 216° Southwest 314 361 9,400 -1,200 Descending Albuquerque Center
01:49AM 33.6661 -111.5903 216° Southwest 299 344 8,500 -1,080 Descending Albuquerque Center
01:50AM 33.6036 -111.6475 217° Southwest 285 328 7,300 -1,320 Descending Albuquerque Center
01:51AM 33.5450 -111.7081 221° Southwest 278 320 5,900 -1,200 Descending Albuquerque Center
01:52AM 33.4867 -111.7675 220° Southwest 274 315 4,900 -1,020 Descending Albuquerque Center
01:53AM 33.4531 -111.8261 236° Southwest 223 257 3,900 -1,260 Descending Albuquerque Center
01:54AM 33.4333 -111.8833 248° West 183 211 2,700 -1,020 Descending Phoenix TRACON
01:55AM 33.4333 -111.9333 270° West 143 165 2,100 -600 Descending Phoenix TRACON
01:56AM 33.4333 -111.9667 270° West 129 148 1,500 -600 Descending Phoenix TRACON